CYYN - Swift Current Airport

Pirep is a free, collaborative database of all public and private airports located within the United States. All pilots are welcome to contribute, edit, and improve any airport they have local knowledge about, no registration required.
Are you familiar with this airport? Help out other pilots by adding your local knowledge.
Uploaded photos will be licensed under a CC BY-SA 4.0 license. Please only upload photos you have the rights to use.
Tags
Public
Undocu­mented
METAR / TAF
Webcam
Edit Tags
Food
Camping
Lodging
Car Rental
Bicycles
Swimming
Golfing
Fishing
Hot Springs
Museum
Flying Clubs
Airpark
Upcoming Events
No upcoming events. Is anything happening here soon?
*
*
*

Where exactly on/near the airport is this event taking place?

Is there a webpage with more information for this event?

Who should be contacted for more information?

What is this event all about?

Repeat every
Description
Transient Parking
Fuel Location
Landing & Tie-down Fees
Crew Car Availability
Flying Clubs
WiFi Access
Airport Statistics
Location: Swift Current, Saskatchewan
Elevation: 2,680ft
Runway 13/31: 4,250ft
Runway 04/22: 2,500ft
Warning: This airport was imported from a non-authoritative source. It's public/private status may not be accurate.
Access: Open to the public
Current Weather — VFR
  • Weather data is strictly informational and not for flight planning purposes.
  • METAR
    2024-06-17 07:00:00 CST
    Ceiling Wind Temperature Dewpoint Weather Visbility
    6,600ft 270° @ 8kt 44°F 42°F N/A 9SM
    Clouds: Overcast @ 6,600ft
    Raw: CYYN 171300Z AUTO 27008KT 9SM OVC066 07/06 A2978 RMK SLP097
  • TAF
    2024-06-17 06:00:00 CST – 2024-06-17 11:00:00 CST
    Ceiling Wind Weather Visbility
    10,000ft 270° @ 10kt N/A 6SM
    Clouds: Overcast @ 10,000ft
    Raw: TAF CYYN 171140Z 1712/1724 27010KT P6SM OVC100 FM171700 VRB03KT P6SM SCT020 BKN040 OVC080 TEMPO 1717/1724 P6SM -SHRA BKN020 OVC040 RMK FCST BASED ON AUTO OBS. NXT FCST BY 171800Z
  • TAF
    2024-06-17 11:00:00 CST – 2024-06-17 18:00:00 CST
    Ceiling Wind Weather Visbility
    4,000ft Variable N/A 6SM
    Clouds: Scattered @ 2,000ft, Broken @ 4,000ft, Overcast @ 8,000ft
    Raw: TAF CYYN 171140Z 1712/1724 27010KT P6SM OVC100 FM171700 VRB03KT P6SM SCT020 BKN040 OVC080 TEMPO 1717/1724 P6SM -SHRA BKN020 OVC040 RMK FCST BASED ON AUTO OBS. NXT FCST BY 171800Z
  • TAF
    2024-06-17 11:00:00 CST – 2024-06-17 18:00:00 CST
    Ceiling Wind Weather Visbility
    2,000ft ° @ kt Light rain showers 6SM
    Clouds: Broken @ 2,000ft, Overcast @ 4,000ft
    Raw: TAF CYYN 171140Z 1712/1724 27010KT P6SM OVC100 FM171700 VRB03KT P6SM SCT020 BKN040 OVC080 TEMPO 1717/1724 P6SM -SHRA BKN020 OVC040 RMK FCST BASED ON AUTO OBS. NXT FCST BY 171800Z
Click/tap to add an annotation marker to the map
Direct links to live image URLs will be displayed inline on this page. URLs to separate webpages will be linked to.
URL:
Direct links to live image URLs will be displayed inline on this page. URLs to separate webpages will be linked to.
URL:
Comments
Leave a comment What was your experience like at this airport?